Time;durP1;ratioP1;P1;durP2;ratioP2;P2;SDS_P1;SDS_P2;PMS_P1;PMS_P2;Temp;Humidity;BMP_temperature;BMP_pressure;BME280_temperature;BME280_humidity;BME280_pressure;Samples;Min_cycle;Max_cycle;Signal;HPM_P1;HPM_P2
2023/05/14 00:00:12;;;;;;;18.38;16.83;;;;;;;;;;4993968;28;20106;-64
2023/05/14 00:02:37;;;;;;;18.73;17.63;;;;;;;;;;4995922;28;20127;-64
2023/05/14 00:05:03;;;;;;;20.73;19.23;;;;;;;;;;4996714;28;20034;-64
2023/05/14 00:07:29;;;;;;;19.60;18.30;;;;;;;;;;4995903;28;20064;-64
2023/05/14 00:09:58;;;;;;;15.20;14.20;;;;;;;;;;4992970;28;20277;-64
2023/05/14 00:12:25;;;;;;;14.57;13.60;;;;;;;;;;4994269;28;20046;-64
2023/05/14 00:14:50;;;;;;;14.77;13.77;;;;;;;;;;4995507;28;20042;-64
2023/05/14 00:17:16;;;;;;;12.20;11.45;;;;;;;;;;4995275;28;20447;-64
2023/05/14 00:19:41;;;;;;;12.73;11.93;;;;;;;;;;4997585;28;20038;-64
2023/05/14 00:22:08;;;;;;;14.85;13.95;;;;;;;;;;4998520;28;20038;-64
2023/05/14 00:24:34;;;;;;;13.65;12.85;;;;;;;;;;4996268;28;20046;-64
2023/05/14 00:26:59;;;;;;;14.68;13.77;;;;;;;;;;4998182;28;20030;-64
2023/05/14 00:29:25;;;;;;;14.55;13.63;;;;;;;;;;4998577;28;20042;-64
2023/05/14 00:31:50;;;;;;;14.70;13.82;;;;;;;;;;4993367;28;20379;-64
2023/05/14 00:34:15;;;;;;;15.95;14.95;;;;;;;;;;4996493;28;20044;-64
2023/05/14 00:36:41;;;;;;;15.02;14.13;;;;;;;;;;4995244;28;20143;-64
2023/05/14 00:39:06;;;;;;;14.35;13.45;;;;;;;;;;4996671;28;20034;-64
2023/05/14 00:41:32;;;;;;;14.88;13.98;;;;;;;;;;4994659;28;20033;-64
2023/05/14 00:43:57;;;;;;;14.63;13.82;;;;;;;;;;4995927;28;20044;-64
2023/05/14 00:46:22;;;;;;;14.38;13.48;;;;;;;;;;4991448;28;20034;-63
2023/05/14 00:48:48;;;;;;;13.80;12.95;;;;;;;;;;4994559;28;20072;-63
2023/05/14 00:51:14;;;;;;;13.27;12.38;;;;;;;;;;4998468;28;20124;-64
2023/05/14 00:53:40;;;;;;;15.32;14.23;;;;;;;;;;4994155;28;20069;-64
2023/05/14 00:56:07;;;;;;;14.10;13.20;;;;;;;;;;4994404;28;20044;-64
2023/05/14 00:58:32;;;;;;;14.02;13.15;;;;;;;;;;4995852;28;20104;-63
2023/05/14 01:00:57;;;;;;;14.30;13.38;;;;;;;;;;4998692;28;20034;-63
2023/05/14 01:03:23;;;;;;;13.55;12.70;;;;;;;;;;4996856;28;20038;-64
2023/05/14 01:06:20;;;;;;;13.60;12.80;;;;;;;;;;4995535;28;20440;-64
2023/05/14 01:08:58;;;;;;;12.23;11.43;;;;;;;;;;4995304;28;20125;-63
2023/05/14 01:11:38;;;;;;;12.75;11.85;;;;;;;;;;4995023;28;20108;-64
2023/05/14 01:14:23;;;;;;;12.57;11.70;;;;;;;;;;4994463;28;20380;-64
2023/05/14 01:16:52;;;;;;;12.73;11.82;;;;;;;;;;4996742;28;20110;-63
2023/05/14 01:19:44;;;;;;;12.30;11.50;;;;;;;;;;4996688;28;20125;-64
2023/05/14 01:22:10;;;;;;;12.20;11.45;;;;;;;;;;4985908;28;20042;-64
2023/05/14 01:24:36;;;;;;;13.10;12.30;;;;;;;;;;4995969;28;20053;-64
2023/05/14 01:27:37;;;;;;;14.10;13.10;;;;;;;;;;4995658;28;20519;-64
2023/05/14 01:30:18;;;;;;;13.35;12.32;;;;;;;;;;4998522;28;20164;-64
2023/05/14 01:32:47;;;;;;;14.57;13.68;;;;;;;;;;4997306;28;20494;-63
2023/05/14 01:35:13;;;;;;;14.85;13.88;;;;;;;;;;4998999;28;20182;-63
2023/05/14 01:37:40;;;;;;;14.90;14.00;;;;;;;;;;4996270;28;20037;-63
2023/05/14 01:40:07;;;;;;;15.68;14.63;;;;;;;;;;5002063;28;20034;-63
2023/05/14 01:42:33;;;;;;;17.13;15.93;;;;;;;;;;5002834;28;20026;-64
2023/05/14 01:44:59;;;;;;;17.80;16.65;;;;;;;;;;4981207;28;20129;-63
2023/05/14 01:47:25;;;;;;;17.33;16.27;;;;;;;;;;4997560;28;20054;-64
2023/05/14 01:49:50;;;;;;;15.05;14.15;;;;;;;;;;4997010;28;20156;-63
2023/05/14 01:52:15;;;;;;;15.55;14.65;;;;;;;;;;5001116;28;20038;-63
2023/05/14 01:54:41;;;;;;;15.25;14.35;;;;;;;;;;5000317;28;20029;-64
2023/05/14 01:57:06;;;;;;;17.52;16.42;;;;;;;;;;4994158;28;20041;-63
2023/05/14 01:59:31;;;;;;;15.15;14.25;;;;;;;;;;4995754;28;20711;-63
2023/05/14 02:01:57;;;;;;;16.27;15.20;;;;;;;;;;5002629;28;20116;-63
2023/05/14 02:04:22;;;;;;;15.00;14.10;;;;;;;;;;4997178;28;20145;-64
2023/05/14 02:06:47;;;;;;;15.52;14.52;;;;;;;;;;4997440;28;20089;-63
2023/05/14 02:09:13;;;;;;;15.95;14.98;;;;;;;;;;4998189;28;20368;-63
2023/05/14 02:11:38;;;;;;;15.52;14.63;;;;;;;;;;5003083;28;20372;-63
2023/05/14 02:14:03;;;;;;;15.82;14.85;;;;;;;;;;4997602;28;20428;-63
2023/05/14 02:16:29;;;;;;;16.23;15.13;;;;;;;;;;4999612;28;20069;-63
2023/05/14 02:18:54;;;;;;;15.30;14.30;;;;;;;;;;4998191;28;20069;-63
2023/05/14 02:21:19;;;;;;;15.60;14.60;;;;;;;;;;4998322;28;20652;-63
2023/05/14 02:23:47;;;;;;;15.57;14.65;;;;;;;;;;4998571;28;20045;-63
2023/05/14 02:26:12;;;;;;;15.48;14.57;;;;;;;;;;4999283;28;20092;-63
2023/05/14 02:28:38;;;;;;;16.45;15.13;;;;;;;;;;5001738;28;20034;-63
2023/05/14 02:31:03;;;;;;;14.95;14.07;;;;;;;;;;4999462;28;20052;-63
2023/05/14 02:33:28;;;;;;;15.40;14.50;;;;;;;;;;4996341;28;20116;-63
2023/05/14 02:35:54;;;;;;;16.02;15.02;;;;;;;;;;4996078;28;20104;-64
2023/05/14 02:38:19;;;;;;;14.43;13.55;;;;;;;;;;4999953;28;20045;-63
2023/05/14 02:40:44;;;;;;;15.00;14.10;;;;;;;;;;4998933;28;20034;-64
2023/05/14 02:43:10;;;;;;;15.15;14.18;;;;;;;;;;4997914;28;20057;-63
2023/05/14 02:45:35;;;;;;;15.45;14.45;;;;;;;;;;4996699;28;20032;-63
2023/05/14 02:48:00;;;;;;;13.82;13.02;;;;;;;;;;4995800;28;20034;-63
2023/05/14 02:50:26;;;;;;;16.05;15.05;;;;;;;;;;5002338;28;20034;-64
2023/05/14 02:52:51;;;;;;;14.73;13.82;;;;;;;;;;4996249;28;20360;-63
2023/05/14 02:55:16;;;;;;;14.50;13.70;;;;;;;;;;4996543;28;20177;-63
2023/05/14 02:57:42;;;;;;;13.65;12.85;;;;;;;;;;4994796;28;20033;-63
2023/05/14 03:00:08;;;;;;;14.95;14.02;;;;;;;;;;4998307;28;20070;-63
2023/05/14 03:02:34;;;;;;;14.35;13.55;;;;;;;;;;4997374;28;20120;-64
2023/05/14 03:05:00;;;;;;;14.48;13.57;;;;;;;;;;4997029;28;20033;-63
2023/05/14 03:07:25;;;;;;;14.88;13.85;;;;;;;;;;5000450;28;20808;-64
2023/05/14 03:09:50;;;;;;;14.18;13.38;;;;;;;;;;4997054;28;20578;-64
2023/05/14 03:12:17;;;;;;;14.75;13.82;;;;;;;;;;4998041;28;20057;-64
2023/05/14 03:14:43;;;;;;;15.27;14.38;;;;;;;;;;4999696;28;20061;-64
2023/05/14 03:17:08;;;;;;;13.90;13.10;;;;;;;;;;5000867;28;20046;-64
2023/05/14 03:19:34;;;;;;;14.80;13.88;;;;;;;;;;4981274;28;20100;-63
2023/05/14 03:21:59;;;;;;;15.88;14.88;;;;;;;;;;4997477;28;20070;-63
2023/05/14 03:24:25;;;;;;;14.23;13.38;;;;;;;;;;4994408;28;20040;-63
2023/05/14 03:26:50;;;;;;;13.95;13.15;;;;;;;;;;4999219;28;20625;-63
2023/05/14 03:29:16;;;;;;;15.73;14.63;;;;;;;;;;4997232;28;20629;-63
2023/05/14 03:31:42;;;;;;;14.57;13.68;;;;;;;;;;4996824;28;20042;-64
2023/05/14 03:34:08;;;;;;;14.23;13.35;;;;;;;;;;5000761;28;20102;-63
2023/05/14 03:36:35;;;;;;;13.85;13.05;;;;;;;;;;4999211;28;20088;-63
2023/05/14 03:39:00;;;;;;;14.40;13.50;;;;;;;;;;4979548;28;20393;-63
2023/05/14 03:41:26;;;;;;;14.57;13.65;;;;;;;;;;4997267;28;20087;-64
2023/05/14 03:43:51;;;;;;;14.35;13.50;;;;;;;;;;4992240;28;20045;-64
2023/05/14 03:46:16;;;;;;;13.38;12.57;;;;;;;;;;4994336;28;20499;-63
2023/05/14 03:48:42;;;;;;;16.90;14.55;;;;;;;;;;4994829;28;20030;-63
2023/05/14 03:51:07;;;;;;;15.20;14.30;;;;;;;;;;4987498;28;20517;-64
2023/05/14 03:53:32;;;;;;;14.75;13.85;;;;;;;;;;4996937;28;20056;-63
2023/05/14 03:55:58;;;;;;;15.20;14.30;;;;;;;;;;4990368;28;20026;-65
2023/05/14 03:58:23;;;;;;;14.70;13.80;;;;;;;;;;4995671;28;20044;-63
2023/05/14 04:00:48;;;;;;;14.23;13.38;;;;;;;;;;4994502;28;20057;-64
2023/05/14 04:03:14;;;;;;;16.05;15.05;;;;;;;;;;4997098;28;20039;-64
2023/05/14 04:05:39;;;;;;;15.63;14.63;;;;;;;;;;4994550;28;20054;-64
2023/05/14 04:08:05;;;;;;;14.38;13.48;;;;;;;;;;4997753;28;20040;-64
2023/05/14 04:10:31;;;;;;;14.35;13.50;;;;;;;;;;4998601;28;20072;-64
2023/05/14 04:12:56;;;;;;;14.18;13.30;;;;;;;;;;4992372;28;20451;-64
2023/05/14 04:15:21;;;;;;;14.10;13.30;;;;;;;;;;4980210;28;20100;-65
2023/05/14 04:17:47;;;;;;;14.23;13.32;;;;;;;;;;4995019;28;20084;-65
2023/05/14 04:20:12;;;;;;;14.93;14.02;;;;;;;;;;4997195;28;20058;-65
2023/05/14 04:22:38;;;;;;;14.68;13.80;;;;;;;;;;4996048;28;20371;-64
2023/05/14 04:25:03;;;;;;;14.85;13.95;;;;;;;;;;4996767;28;20096;-64
2023/05/14 04:27:29;;;;;;;13.98;12.98;;;;;;;;;;4998317;28;20447;-64
2023/05/14 04:29:54;;;;;;;13.48;12.68;;;;;;;;;;4994736;28;21315;-64
2023/05/14 04:32:20;;;;;;;13.38;12.57;;;;;;;;;;4994587;28;20097;-64
2023/05/14 04:34:46;;;;;;;13.63;12.75;;;;;;;;;;4991760;28;20030;-64
2023/05/14 04:37:11;;;;;;;13.02;12.15;;;;;;;;;;4998781;28;20784;-65
2023/05/14 04:39:37;;;;;;;13.27;12.48;;;;;;;;;;4984538;28;20034;-65
2023/05/14 04:42:03;;;;;;;13.60;12.70;;;;;;;;;;4991698;28;20117;-64
2023/05/14 04:44:28;;;;;;;13.05;12.25;;;;;;;;;;4992581;28;20037;-63
2023/05/14 04:46:54;;;;;;;13.65;12.43;;;;;;;;;;4994813;28;20045;-64
2023/05/14 04:49:20;;;;;;;12.98;12.18;;;;;;;;;;4993728;28;20033;-63
2023/05/14 04:51:46;;;;;;;12.48;11.68;;;;;;;;;;4993600;28;20049;-64
2023/05/14 04:54:12;;;;;;;12.18;11.43;;;;;;;;;;4995142;28;20035;-64
2023/05/14 04:56:37;;;;;;;12.15;11.35;;;;;;;;;;4992710;28;20672;-64
2023/05/14 04:59:03;;;;;;;13.73;12.82;;;;;;;;;;4992774;28;20038;-63
2023/05/14 05:01:28;;;;;;;12.35;11.55;;;;;;;;;;4992193;28;20038;-63
2023/05/14 05:03:54;;;;;;;11.80;11.10;;;;;;;;;;4995752;28;20037;-63
2023/05/14 05:06:19;;;;;;;12.68;11.88;;;;;;;;;;4994989;28;20053;-63
2023/05/14 05:08:44;;;;;;;11.95;11.25;;;;;;;;;;4999719;28;20037;-64
2023/05/14 05:11:10;;;;;;;13.38;12.57;;;;;;;;;;4998304;28;20397;-63
2023/05/14 05:13:35;;;;;;;14.10;13.20;;;;;;;;;;5001563;28;20048;-63
2023/05/14 05:16:00;;;;;;;12.93;12.02;;;;;;;;;;4997558;28;20311;-63
2023/05/14 05:18:26;;;;;;;12.82;11.90;;;;;;;;;;4999561;28;20798;-63
2023/05/14 05:20:51;;;;;;;14.90;13.68;;;;;;;;;;4997336;28;20040;-64
2023/05/14 05:23:16;;;;;;;12.90;12.00;;;;;;;;;;4983598;28;20026;-58
2023/05/14 05:25:42;;;;;;;12.88;12.07;;;;;;;;;;5002092;28;20034;-63
2023/05/14 05:28:07;;;;;;;12.93;12.13;;;;;;;;;;4999971;28;20034;-63
2023/05/14 05:30:32;;;;;;;12.50;11.80;;;;;;;;;;4998866;28;20041;-63
2023/05/14 05:32:58;;;;;;;11.93;11.23;;;;;;;;;;5002033;28;21262;-63
2023/05/14 05:35:23;;;;;;;12.18;11.38;;;;;;;;;;5001756;28;20034;-63
2023/05/14 05:37:48;;;;;;;13.07;12.27;;;;;;;;;;5000819;28;20105;-63
2023/05/14 05:40:14;;;;;;;12.82;12.02;;;;;;;;;;5001036;28;20180;-63
2023/05/14 05:42:40;;;;;;;13.43;12.52;;;;;;;;;;4998513;28;20044;-63
2023/05/14 05:45:06;;;;;;;13.85;12.82;;;;;;;;;;4997316;28;20017;-64
2023/05/14 05:47:31;;;;;;;13.82;12.98;;;;;;;;;;5001322;28;20036;-64
2023/05/14 05:49:57;;;;;;;12.93;12.13;;;;;;;;;;5001460;28;20042;-64
2023/05/14 05:52:22;;;;;;;12.25;11.40;;;;;;;;;;4997929;28;20462;-64
2023/05/14 05:54:47;;;;;;;13.18;12.38;;;;;;;;;;4998747;28;20049;-64
2023/05/14 05:57:13;;;;;;;12.52;11.77;;;;;;;;;;4996750;28;20471;-64
2023/05/14 05:59:38;;;;;;;13.65;12.85;;;;;;;;;;5002971;28;20037;-64
2023/05/14 06:02:04;;;;;;;12.07;11.38;;;;;;;;;;5000718;28;20045;-64
2023/05/14 06:04:29;;;;;;;13.35;12.55;;;;;;;;;;4999219;28;20045;-65
2023/05/14 06:06:54;;;;;;;13.73;12.85;;;;;;;;;;4999234;28;20095;-65
2023/05/14 06:09:20;;;;;;;12.38;11.57;;;;;;;;;;4999101;28;20034;-65
2023/05/14 06:11:45;;;;;;;13.07;12.20;;;;;;;;;;5001640;28;20038;-65
2023/05/14 06:14:10;;;;;;;13.95;13.05;;;;;;;;;;5001611;28;20038;-65
2023/05/14 06:16:36;;;;;;;18.50;17.20;;;;;;;;;;4998038;28;20037;-64
2023/05/14 06:19:01;;;;;;;18.42;17.15;;;;;;;;;;4996917;28;20034;-64
2023/05/14 06:21:26;;;;;;;22.08;20.88;;;;;;;;;;4999970;28;20334;-65
2023/05/14 06:23:52;;;;;;;29.75;28.05;;;;;;;;;;4997233;28;20091;-64
2023/05/14 06:26:17;;;;;;;31.00;29.25;;;;;;;;;;5001609;28;20030;-64
2023/05/14 06:28:43;;;;;;;26.77;25.35;;;;;;;;;;4995760;28;20034;-64
2023/05/14 06:31:09;;;;;;;23.67;22.38;;;;;;;;;;4999656;28;20034;-64
2023/05/14 06:33:34;;;;;;;27.92;26.42;;;;;;;;;;5001040;28;20049;-64
2023/05/14 06:36:03;;;;;;;23.20;21.90;;;;;;;;;;4997192;28;20038;-64
2023/05/14 06:38:29;;;;;;;12.88;12.07;;;;;;;;;;4993706;28;20026;-64
2023/05/14 06:40:54;;;;;;;12.65;11.85;;;;;;;;;;4995202;28;20073;-65
2023/05/14 06:43:20;;;;;;;10.98;10.27;;;;;;;;;;4996827;28;20096;-65
2023/05/14 06:45:49;;;;;;;15.20;14.32;;;;;;;;;;4996213;28;20696;-65
2023/05/14 06:48:17;;;;;;;14.38;13.52;;;;;;;;;;4998625;28;20420;-66
2023/05/14 06:50:43;;;;;;;18.75;17.70;;;;;;;;;;4997303;28;20466;-65
2023/05/14 06:53:08;;;;;;;20.35;19.20;;;;;;;;;;4997798;28;20069;-64
2023/05/14 06:55:33;;;;;;;24.77;23.45;;;;;;;;;;4995810;28;20088;-65
2023/05/14 06:57:59;;;;;;;20.25;19.15;;;;;;;;;;4997122;28;20069;-64
2023/05/14 07:00:24;;;;;;;24.90;23.55;;;;;;;;;;4997175;28;20064;-64
2023/05/14 07:02:49;;;;;;;27.73;26.27;;;;;;;;;;4985363;28;20030;-64
2023/05/14 07:05:15;;;;;;;27.08;25.60;;;;;;;;;;4997785;28;20042;-65
2023/05/14 07:07:40;;;;;;;29.23;27.63;;;;;;;;;;4998938;28;20022;-64
2023/05/14 07:10:07;;;;;;;32.38;30.67;;;;;;;;;;4999984;28;20379;-64
2023/05/14 07:12:32;;;;;;;29.83;28.27;;;;;;;;;;4998325;28;20034;-64
2023/05/14 07:14:57;;;;;;;24.33;23.02;;;;;;;;;;4996004;28;20034;-64
2023/05/14 07:17:23;;;;;;;32.35;30.63;;;;;;;;;;4998121;28;20038;-64
2023/05/14 07:19:48;;;;;;;21.52;20.33;;;;;;;;;;5001827;28;20132;-64
2023/05/14 07:22:13;;;;;;;25.85;24.45;;;;;;;;;;5001802;28;20069;-64
2023/05/14 07:24:39;;;;;;;27.00;25.60;;;;;;;;;;4999705;28;20037;-64
2023/05/14 07:27:05;;;;;;;16.05;15.15;;;;;;;;;;4997728;28;20487;-64
2023/05/14 07:29:30;;;;;;;17.92;16.75;;;;;;;;;;4995123;28;20460;-64
2023/05/14 07:31:55;;;;;;;21.88;20.67;;;;;;;;;;4994344;28;20033;-63
2023/05/14 07:34:21;;;;;;;31.50;29.88;;;;;;;;;;4997324;28;20042;-64
2023/05/14 07:36:46;;;;;;;17.00;15.98;;;;;;;;;;4992688;28;20034;-64
2023/05/14 07:39:11;;;;;;;16.45;15.55;;;;;;;;;;4996631;28;20048;-64
2023/05/14 07:41:37;;;;;;;12.90;12.10;;;;;;;;;;4994081;28;20211;-63
2023/05/14 07:44:02;;;;;;;14.05;13.15;;;;;;;;;;4998000;28;20463;-64
2023/05/14 07:46:27;;;;;;;13.02;12.13;;;;;;;;;;4998297;28;20093;-64
2023/05/14 07:48:53;;;;;;;15.07;14.23;;;;;;;;;;4996932;28;20137;-64
2023/05/14 07:51:18;;;;;;;12.60;11.90;;;;;;;;;;4996692;28;20041;-64
2023/05/14 07:53:43;;;;;;;13.90;13.00;;;;;;;;;;4994388;28;20034;-64
2023/05/14 07:56:09;;;;;;;14.02;13.23;;;;;;;;;;4995449;28;20103;-63
2023/05/14 07:58:35;;;;;;;13.63;12.82;;;;;;;;;;4997265;28;20033;-64
2023/05/14 08:01:02;;;;;;;13.70;12.90;;;;;;;;;;4998462;28;20041;-64
2023/05/14 08:03:27;;;;;;;13.98;13.18;;;;;;;;;;4995980;28;20091;-63
2023/05/14 08:05:53;;;;;;;14.15;13.35;;;;;;;;;;4997689;28;20026;-64
2023/05/14 08:08:18;;;;;;;14.38;13.57;;;;;;;;;;4993659;28;20049;-64
2023/05/14 08:10:44;;;;;;;14.35;13.50;;;;;;;;;;4995615;28;20048;-64
2023/05/14 08:13:09;;;;;;;13.63;12.82;;;;;;;;;;4996924;28;20068;-64
2023/05/14 08:15:35;;;;;;;14.23;13.43;;;;;;;;;;4990667;28;20033;-63
2023/05/14 08:18:02;;;;;;;16.33;15.43;;;;;;;;;;4990468;28;20107;-64
2023/05/14 08:20:29;;;;;;;13.13;12.32;;;;;;;;;;4996944;28;20034;-64
2023/05/14 08:22:56;;;;;;;15.30;14.40;;;;;;;;;;4995186;28;20103;-64
2023/05/14 08:25:22;;;;;;;14.40;13.57;;;;;;;;;;4996422;28;20762;-64
2023/05/14 08:27:47;;;;;;;12.70;11.93;;;;;;;;;;4994306;28;20034;-64
2023/05/14 08:30:13;;;;;;;12.35;11.63;;;;;;;;;;5000970;28;20033;-63
2023/05/14 08:32:38;;;;;;;13.00;12.20;;;;;;;;;;4996495;28;20037;-64
2023/05/14 08:35:04;;;;;;;13.25;12.45;;;;;;;;;;4995421;28;20062;-64
2023/05/14 08:37:30;;;;;;;12.15;11.45;;;;;;;;;;4994504;28;20137;-64
2023/05/14 08:39:55;;;;;;;12.90;12.10;;;;;;;;;;4993594;28;20029;-64
2023/05/14 08:42:23;;;;;;;16.17;15.27;;;;;;;;;;4996617;28;20030;-64
2023/05/14 08:44:54;;;;;;;14.43;13.52;;;;;;;;;;4993624;28;20045;-64
2023/05/14 08:47:21;;;;;;;14.15;13.25;;;;;;;;;;4997976;28;20558;-64
2023/05/14 08:49:51;;;;;;;15.07;14.18;;;;;;;;;;4994343;28;20052;-64
2023/05/14 08:52:19;;;;;;;14.45;13.57;;;;;;;;;;4993771;28;20100;-64
2023/05/14 08:54:46;;;;;;;14.52;13.73;;;;;;;;;;4994818;28;20081;-64
2023/05/14 08:57:13;;;;;;;12.85;11.95;;;;;;;;;;4996841;28;20144;-64
2023/05/14 08:59:40;;;;;;;13.30;12.50;;;;;;;;;;5000455;28;20069;-64
2023/05/14 09:02:06;;;;;;;12.85;12.05;;;;;;;;;;4994712;28;20438;-64
2023/05/14 09:04:33;;;;;;;13.38;12.57;;;;;;;;;;4994520;28;20494;-64
2023/05/14 09:07:00;;;;;;;13.60;12.80;;;;;;;;;;4993899;28;20415;-64
2023/05/14 09:09:26;;;;;;;15.15;14.15;;;;;;;;;;4996430;28;20073;-63
2023/05/14 09:11:52;;;;;;;13.43;12.63;;;;;;;;;;4994308;28;20042;-63
2023/05/14 09:14:19;;;;;;;12.45;11.75;;;;;;;;;;4992488;28;20044;-63
2023/05/14 09:16:46;;;;;;;12.85;12.05;;;;;;;;;;4993040;28;20045;-63
2023/05/14 09:19:12;;;;;;;12.88;11.98;;;;;;;;;;4996354;28;20161;-64
2023/05/14 09:21:39;;;;;;;12.65;11.85;;;;;;;;;;4999125;28;20038;-64
2023/05/14 09:24:04;;;;;;;11.95;11.23;;;;;;;;;;4996705;28;20033;-65
2023/05/14 09:26:32;;;;;;;13.70;12.77;;;;;;;;;;4996127;28;20546;-64
2023/05/14 09:29:02;;;;;;;12.80;12.00;;;;;;;;;;4994878;28;20077;-64
2023/05/14 09:31:32;;;;;;;13.82;13.02;;;;;;;;;;4996062;28;20120;-64
2023/05/14 09:33:58;;;;;;;15.97;15.07;;;;;;;;;;4997883;28;20049;-64
2023/05/14 09:36:26;;;;;;;14.10;13.30;;;;;;;;;;4980044;28;20045;-64
2023/05/14 09:38:52;;;;;;;13.40;12.60;;;;;;;;;;4992705;28;20033;-64
2023/05/14 09:41:18;;;;;;;16.35;15.35;;;;;;;;;;4995726;28;20026;-64
2023/05/14 09:43:43;;;;;;;12.57;11.88;;;;;;;;;;4999845;28;20120;-65
2023/05/14 09:46:09;;;;;;;14.60;13.70;;;;;;;;;;4997711;28;20121;-64
2023/05/14 09:48:34;;;;;;;24.52;21.88;;;;;;;;;;4982046;28;20232;-64
2023/05/14 09:51:00;;;;;;;18.00;17.00;;;;;;;;;;4998089;28;20451;-64
2023/05/14 09:53:25;;;;;;;17.65;16.65;;;;;;;;;;5002083;28;20037;-64
2023/05/14 09:55:50;;;;;;;26.15;24.75;;;;;;;;;;5000194;28;20053;-64
2023/05/14 09:58:16;;;;;;;25.98;24.58;;;;;;;;;;4998622;28;20072;-64
2023/05/14 10:00:44;;;;;;;23.08;21.80;;;;;;;;;;4996099;28;20083;-64
2023/05/14 10:03:13;;;;;;;21.75;20.55;;;;;;;;;;4995474;28;20176;-64
2023/05/14 10:05:42;;;;;;;18.75;17.67;;;;;;;;;;4982232;28;20515;-64
2023/05/14 10:08:17;;;;;;;18.77;17.75;;;;;;;;;;4996208;28;20053;-63
2023/05/14 10:10:42;;;;;;;21.08;19.92;;;;;;;;;;4997945;28;20168;-64
2023/05/14 10:13:13;;;;;;;13.85;13.05;;;;;;;;;;4996606;28;20046;-64
2023/05/14 10:15:47;;;;;;;23.27;22.05;;;;;;;;;;4997823;28;20844;-64
2023/05/14 10:18:18;;;;;;;16.05;15.15;;;;;;;;;;4997794;28;20053;-64
2023/05/14 10:20:46;;;;;;;;;;;;;;;;;;5000568;28;20142;-64
2023/05/14 10:23:12;;;;;;;19.65;18.55;;;;;;;;;;4997696;28;19929;-65
2023/05/14 10:25:38;;;;;;;26.02;24.63;;;;;;;;;;5000482;28;20034;-65
2023/05/14 10:28:04;;;;;;;27.33;25.88;;;;;;;;;;4996726;28;20142;-65
2023/05/14 10:30:30;;;;;;;21.98;20.77;;;;;;;;;;5002745;28;20029;-57
2023/05/14 10:33:15;;;;;;;30.70;29.02;;;;;;;;;;4993563;28;20456;-58
2023/05/14 10:36:01;;;;;;;23.92;22.63;;;;;;;;;;4999274;28;20034;-57
2023/05/14 10:38:29;;;;;;;28.77;27.27;;;;;;;;;;4996884;28;20095;-58
2023/05/14 10:41:03;;;;;;;25.40;24.10;;;;;;;;;;5001135;28;20045;-58
2023/05/14 10:43:29;;;;;;;27.23;25.83;;;;;;;;;;4998207;28;20069;-59
2023/05/14 10:45:56;;;;;;;24.38;23.08;;;;;;;;;;4988364;28;20087;-62
2023/05/14 10:48:23;;;;;;;23.73;22.42;;;;;;;;;;4998450;28;20341;-58
2023/05/14 10:50:50;;;;;;;25.15;23.75;;;;;;;;;;4998855;28;20076;-58
2023/05/14 10:53:16;;;;;;;21.15;19.98;;;;;;;;;;5000270;28;20657;-58
2023/05/14 10:55:42;;;;;;;18.60;17.58;;;;;;;;;;5000012;28;20025;-58
2023/05/14 10:58:08;;;;;;;17.88;16.88;;;;;;;;;;4998073;28;20038;-58
2023/05/14 11:00:34;;;;;;;17.20;16.20;;;;;;;;;;4996908;28;20048;-57
2023/05/14 11:03:03;;;;;;;16.58;15.68;;;;;;;;;;4997932;28;20050;-58
2023/05/14 11:05:29;;;;;;;19.95;18.85;;;;;;;;;;5000732;28;20030;-58
2023/05/14 11:07:56;;;;;;;13.52;12.73;;;;;;;;;;4996367;28;20057;-59
2023/05/14 11:10:24;;;;;;;16.23;15.32;;;;;;;;;;4999857;28;20034;-57
2023/05/14 11:12:50;;;;;;;19.88;18.77;;;;;;;;;;4999951;28;20034;-57
2023/05/14 11:15:18;;;;;;;21.48;20.30;;;;;;;;;;4996649;28;20113;-57
2023/05/14 11:17:45;;;;;;;22.48;21.25;;;;;;;;;;4997054;28;20035;-57
2023/05/14 11:20:12;;;;;;;23.25;21.98;;;;;;;;;;4997293;28;20041;-58
2023/05/14 11:22:39;;;;;;;22.48;21.27;;;;;;;;;;5000939;28;20056;-58
2023/05/14 11:25:05;;;;;;;24.70;23.40;;;;;;;;;;4995923;28;20074;-58
2023/05/14 11:27:34;;;;;;;23.45;22.15;;;;;;;;;;5000138;28;20432;-59
2023/05/14 11:29:59;;;;;;;24.20;22.90;;;;;;;;;;4997646;28;20038;-58
2023/05/14 11:32:25;;;;;;;23.80;22.52;;;;;;;;;;4996102;28;20060;-57
2023/05/14 11:34:51;;;;;;;23.17;21.95;;;;;;;;;;4993479;28;20042;-58
2023/05/14 11:37:16;;;;;;;25.33;23.98;;;;;;;;;;4995052;28;20041;-58
2023/05/14 11:39:50;;;;;;;21.58;20.38;;;;;;;;;;4997693;28;20053;-58
2023/05/14 11:42:18;;;;;;;22.45;21.25;;;;;;;;;;4995257;28;20464;-57
2023/05/14 11:44:46;;;;;;;26.98;25.58;;;;;;;;;;4997842;28;20049;-58
2023/05/14 11:47:11;;;;;;;19.02;18.02;;;;;;;;;;4996107;28;20062;-59
2023/05/14 11:49:37;;;;;;;21.88;20.67;;;;;;;;;;4996442;28;20065;-60
2023/05/14 11:52:07;;;;;;;22.60;21.40;;;;;;;;;;4998976;28;20041;-57
2023/05/14 11:54:33;;;;;;;24.98;23.63;;;;;;;;;;4997021;28;20099;-57
2023/05/14 11:57:02;;;;;;;25.23;23.83;;;;;;;;;;4997265;28;20054;-57
2023/05/14 11:59:30;;;;;;;23.42;22.20;;;;;;;;;;4998284;28;20034;-57
2023/05/14 12:01:55;;;;;;;22.80;21.55;;;;;;;;;;5000450;28;20038;-57
2023/05/14 12:04:21;;;;;;;24.52;23.23;;;;;;;;;;4998470;28;20038;-57
2023/05/14 12:06:53;;;;;;;23.75;22.45;;;;;;;;;;4998637;28;20022;-57
2023/05/14 12:09:20;;;;;;;26.45;25.05;;;;;;;;;;4998679;28;20029;-57
2023/05/14 12:11:47;;;;;;;23.23;21.92;;;;;;;;;;4998640;28;20073;-57
2023/05/14 12:14:23;;;;;;;26.42;25.00;;;;;;;;;;4996199;28;20037;-57
2023/05/14 12:16:50;;;;;;;24.48;23.17;;;;;;;;;;4998379;28;20049;-57
2023/05/14 12:19:20;;;;;;;21.02;19.90;;;;;;;;;;4998211;28;20037;-58
2023/05/14 12:21:47;;;;;;;29.80;28.20;;;;;;;;;;4998509;28;20193;-58
2023/05/14 12:24:17;;;;;;;28.98;27.10;;;;;;;;;;4999911;28;20041;-58
2023/05/14 12:26:47;;;;;;;22.52;21.33;;;;;;;;;;4996417;28;20483;-59
2023/05/14 12:29:14;;;;;;;25.27;23.92;;;;;;;;;;4996760;28;20040;-58
2023/05/14 12:31:47;;;;;;;18.02;17.02;;;;;;;;;;4996885;28;20141;-58
2023/05/14 12:34:12;;;;;;;18.15;17.15;;;;;;;;;;4994370;28;20045;-58
2023/05/14 12:36:38;;;;;;;18.90;17.80;;;;;;;;;;4991961;28;20046;-58
2023/05/14 12:39:04;;;;;;;20.08;18.98;;;;;;;;;;4996212;28;20034;-58
2023/05/14 12:41:30;;;;;;;23.33;22.08;;;;;;;;;;4999265;28;20040;-57
2023/05/14 12:43:56;;;;;;;25.90;24.50;;;;;;;;;;4998362;28;20491;-58
2023/05/14 12:46:22;;;;;;;27.92;26.42;;;;;;;;;;4998640;28;20058;-57
2023/05/14 12:48:47;;;;;;;28.10;26.63;;;;;;;;;;4996157;28;20113;-57
2023/05/14 12:51:13;;;;;;;28.85;27.35;;;;;;;;;;4981824;28;20456;-58
2023/05/14 12:53:38;;;;;;;28.92;27.38;;;;;;;;;;4997348;28;20034;-58
2023/05/14 12:56:05;;;;;;;33.35;31.55;;;;;;;;;;4995130;28;20041;-59
2023/05/14 12:58:30;;;;;;;29.55;28.00;;;;;;;;;;4995321;28;20037;-58
2023/05/14 13:00:56;;;;;;;18.23;17.23;;;;;;;;;;4986457;28;20038;-59
2023/05/14 13:03:21;;;;;;;27.75;26.27;;;;;;;;;;4996088;28;20069;-57
2023/05/14 13:05:47;;;;;;;16.75;15.80;;;;;;;;;;4995444;28;20448;-57
2023/05/14 13:08:16;;;;;;;21.52;20.35;;;;;;;;;;4995603;28;20076;-57
2023/05/14 13:10:42;;;;;;;18.10;17.10;;;;;;;;;;4996059;28;20491;-57
2023/05/14 13:13:07;;;;;;;20.10;18.92;;;;;;;;;;4994594;28;20041;-57
2023/05/14 13:15:34;;;;;;;18.85;17.83;;;;;;;;;;4995462;28;20045;-57
2023/05/14 13:18:00;;;;;;;20.70;19.52;;;;;;;;;;4995815;28;20121;-57
2023/05/14 13:20:26;;;;;;;19.80;18.70;;;;;;;;;;4998689;28;20108;-56
2023/05/14 13:22:52;;;;;;;20.02;18.92;;;;;;;;;;4994204;28;20463;-56
2023/05/14 13:25:17;;;;;;;20.10;19.00;;;;;;;;;;4995945;28;20045;-56
2023/05/14 13:27:42;;;;;;;17.38;16.40;;;;;;;;;;5001721;28;20029;-57
2023/05/14 13:30:08;;;;;;;18.52;17.45;;;;;;;;;;5000081;28;20108;-56
2023/05/14 13:32:33;;;;;;;18.83;17.77;;;;;;;;;;5000603;28;20092;-57
2023/05/14 13:34:59;;;;;;;18.00;17.00;;;;;;;;;;4998350;28;20140;-56
2023/05/14 13:37:24;;;;;;;16.65;15.73;;;;;;;;;;5000335;28;20026;-56
2023/05/14 13:39:50;;;;;;;20.17;18.60;;;;;;;;;;4998317;28;20080;-55
2023/05/14 13:42:15;;;;;;;20.08;18.88;;;;;;;;;;5000013;28;20101;-58
2023/05/14 13:44:40;;;;;;;24.42;21.10;;;;;;;;;;5000217;28;20121;-56
2023/05/14 13:47:06;;;;;;;20.05;18.95;;;;;;;;;;5002063;28;20041;-57
2023/05/14 13:49:31;;;;;;;27.35;25.92;;;;;;;;;;4996284;28;20041;-56
2023/05/14 13:51:57;;;;;;;26.65;25.25;;;;;;;;;;5000701;28;20110;-58
2023/05/14 13:54:22;;;;;;;24.83;23.33;;;;;;;;;;4997483;28;20030;-56
2023/05/14 13:56:47;;;;;;;19.92;18.83;;;;;;;;;;4999726;28;20631;-63
2023/05/14 13:59:14;;;;;;;35.55;33.72;;;;;;;;;;4995407;28;20150;-56
2023/05/14 14:01:41;;;;;;;30.77;29.17;;;;;;;;;;4994515;28;20033;-62
2023/05/14 14:04:08;;;;;;;31.08;29.13;;;;;;;;;;4998875;28;20046;-57
2023/05/14 14:06:33;;;;;;;31.08;29.38;;;;;;;;;;5000931;28;20427;-56
2023/05/14 14:08:59;;;;;;;29.02;27.52;;;;;;;;;;5000383;28;20551;-56
2023/05/14 14:11:25;;;;;;;21.90;20.70;;;;;;;;;;5000643;28;20034;-56
2023/05/14 14:13:50;;;;;;;28.30;26.70;;;;;;;;;;4998934;28;20049;-54